Middlefield, Connecticut
Current Conditions -  °F | °C
As of 3:53 PM on Saturday 25 Oct 2014 (Local Time) from KMMK Reporting Station
Clear Clear  
Wind Chill: 65°   Ceiling: Unl
Heat Index: 65°   Visibility: 10mi
Dew Point: 40°   Wind: 7mph
Humidity: 40%   Direction: 260°W
Pressure: 29.65"   Gusts: NA
Location:  41.52°N, 72.71°W
Report Text: KMMK 251953Z AUTO 26006KT 10SM CLR 18/04 A2965 RMK AO2 SLP039 T01830044 TSNO
Loading
Personal Weather Stations






























Interactive Weather Map
Tropical Storm Tracking
New forecast layout! Learn more

10-Day Weather Forecast

Advertisements
Track Severe Weather on mobile